createdAt,value
2016-09-13T00:00:07.590Z,0
2016-09-13T00:01:08.666Z,0
2016-09-13T00:02:08.397Z,0
2016-09-13T00:03:07.683Z,0
2016-09-13T00:04:09.495Z,0
2016-09-13T00:05:08.990Z,0
2016-09-13T00:06:07.375Z,0
2016-09-13T00:07:07.547Z,0
2016-09-13T00:08:08.735Z,0
2016-09-13T00:09:08.502Z,0
2016-09-13T00:10:08.036Z,0
2016-09-13T00:11:08.911Z,0
2016-09-13T00:12:08.031Z,0
2016-09-13T00:13:09.310Z,0
2016-09-13T00:14:06.901Z,0
2016-09-13T00:15:07.974Z,0
2016-09-13T00:16:07.495Z,0
2016-09-13T00:17:07.832Z,0
2016-09-13T00:18:08.377Z,0
2016-09-13T00:19:07.575Z,0
2016-09-13T00:20:07.126Z,0
2016-09-13T00:21:07.704Z,0
2016-09-13T00:22:07.895Z,0
2016-09-13T00:23:08.639Z,0
2016-09-13T00:24:08.166Z,0
2016-09-13T00:25:08.402Z,0
2016-09-13T00:26:08.884Z,0
2016-09-13T00:27:08.368Z,0
2016-09-13T00:28:08.249Z,0
2016-09-13T00:29:08.273Z,0
2016-09-13T00:30:08.073Z,0
2016-09-13T00:31:08.200Z,0
2016-09-13T00:32:09.694Z,0
2016-09-13T00:33:07.803Z,0
2016-09-13T00:34:08.570Z,0
2016-09-13T00:35:08.710Z,0
2016-09-13T00:36:09.658Z,0
2016-09-13T00:37:09.111Z,0
2016-09-13T00:38:08.544Z,0
2016-09-13T00:39:10.100Z,0
2016-09-13T00:40:10.067Z,0
2016-09-13T00:41:09.705Z,0
2016-09-13T00:42:09.967Z,0
2016-09-13T00:43:09.171Z,0
2016-09-13T00:44:09.464Z,0
2016-09-13T00:45:09.820Z,0
2016-09-13T00:46:06.961Z,0
2016-09-13T00:47:09.974Z,0
2016-09-13T00:48:09.734Z,0
2016-09-13T00:49:09.087Z,0
2016-09-13T00:50:10.494Z,0
2016-09-13T00:51:10.909Z,0
2016-09-13T00:52:08.775Z,0
2016-09-13T00:53:08.818Z,0
2016-09-13T00:54:09.094Z,0
2016-09-13T00:55:09.103Z,0
2016-09-13T00:56:08.046Z,0
2016-09-13T00:57:08.508Z,0
2016-09-13T00:58:08.823Z,0
2016-09-13T00:59:09.546Z,0
2016-09-13T01:00:08.437Z,0
2016-09-13T01:01:09.669Z,0
2016-09-13T01:02:12.024Z,0
2016-09-13T01:03:09.083Z,0
2016-09-13T01:04:07.859Z,0
2016-09-13T01:05:10.003Z,0
2016-09-13T01:06:08.169Z,0
2016-09-13T01:07:08.051Z,0
2016-09-13T01:08:08.962Z,0
2016-09-13T01:09:10.242Z,0
2016-09-13T01:10:11.076Z,0
2016-09-13T01:11:09.284Z,0
2016-09-13T01:12:08.562Z,0
2016-09-13T01:13:09.204Z,0
2016-09-13T01:14:11.719Z,0
2016-09-13T01:15:08.691Z,0
2016-09-13T01:16:10.313Z,0
2016-09-13T01:17:08.548Z,0
2016-09-13T01:18:09.325Z,0
2016-09-13T01:19:11.216Z,0
2016-09-13T01:20:09.251Z,0
2016-09-13T01:21:09.350Z,0
2016-09-13T01:22:09.045Z,0
2016-09-13T01:23:09.602Z,0
2016-09-13T01:24:08.646Z,0
2016-09-13T01:25:10.003Z,0
2016-09-13T01:26:11.330Z,0
2016-09-13T01:27:10.428Z,0
2016-09-13T01:28:11.555Z,0
2016-09-13T01:29:08.700Z,0
2016-09-13T01:30:10.150Z,0
2016-09-13T01:31:11.184Z,0
2016-09-13T01:32:11.286Z,0
2016-09-13T01:33:11.340Z,0
2016-09-13T01:34:09.100Z,0
2016-09-13T01:35:11.917Z,0
2016-09-13T01:36:10.330Z,0
2016-09-13T01:37:10.230Z,0
2016-09-13T01:38:09.998Z,0
2016-09-13T01:39:11.831Z,0
2016-09-13T01:40:09.909Z,0
2016-09-13T01:41:10.247Z,0
2016-09-13T01:42:09.582Z,0
2016-09-13T01:43:10.001Z,0
2016-09-13T01:44:09.601Z,0
2016-09-13T01:45:11.117Z,0
2016-09-13T01:46:09.611Z,0
2016-09-13T01:47:09.913Z,0
2016-09-13T01:48:10.496Z,0
2016-09-13T01:49:12.410Z,0
2016-09-13T01:50:09.612Z,0
2016-09-13T01:51:10.882Z,0
2016-09-13T01:52:09.984Z,0
2016-09-13T01:53:09.950Z,0
2016-09-13T01:54:08.956Z,0
2016-09-13T01:55:09.141Z,0
2016-09-13T01:56:11.873Z,0
2016-09-13T01:57:09.968Z,0
2016-09-13T01:58:10.697Z,0
2016-09-13T01:59:09.871Z,0
2016-09-13T02:00:11.290Z,0
2016-09-13T02:01:10.358Z,0
2016-09-13T02:02:10.893Z,0
2016-09-13T02:03:11.644Z,0
2016-09-13T02:04:09.775Z,0
2016-09-13T02:05:11.966Z,0
2016-09-13T02:06:11.634Z,0
2016-09-13T02:07:10.291Z,0
2016-09-13T02:08:13.576Z,0
2016-09-13T02:09:10.447Z,0
2016-09-13T02:10:10.470Z,0
2016-09-13T02:11:10.962Z,0
2016-09-13T02:12:10.365Z,0
2016-09-13T02:13:10.728Z,0
2016-09-13T02:14:11.227Z,0
2016-09-13T02:15:11.057Z,0
2016-09-13T02:16:12.045Z,0
2016-09-13T02:17:11.667Z,0
2016-09-13T02:18:12.109Z,0
2016-09-13T02:19:10.086Z,0
2016-09-13T02:20:10.499Z,0
2016-09-13T02:21:09.890Z,0
2016-09-13T02:22:12.376Z,0
2016-09-13T02:23:11.002Z,0
2016-09-13T02:24:10.840Z,0
2016-09-13T02:25:14.130Z,0
2016-09-13T02:26:11.978Z,0
2016-09-13T02:27:12.916Z,0
2016-09-13T02:28:11.448Z,0
2016-09-13T02:29:11.400Z,0
2016-09-13T02:30:11.889Z,0
2016-09-13T02:31:12.883Z,0
2016-09-13T02:32:11.852Z,0
2016-09-13T02:33:11.445Z,0
2016-09-13T02:34:10.551Z,0
2016-09-13T02:35:11.187Z,0
2016-09-13T02:36:11.953Z,0
2016-09-13T02:37:10.071Z,0
2016-09-13T02:38:12.174Z,0
2016-09-13T02:39:12.060Z,0
2016-09-13T02:40:13.249Z,0
2016-09-13T02:41:12.373Z,0
2016-09-13T02:42:10.009Z,0
2016-09-13T02:43:12.919Z,0
2016-09-13T02:44:12.830Z,0
2016-09-13T02:45:15.460Z,0
2016-09-13T02:46:11.897Z,0
2016-09-13T02:47:11.494Z,0
2016-09-13T02:48:12.300Z,0
2016-09-13T02:49:11.206Z,0
2016-09-13T02:50:09.569Z,0
2016-09-13T02:51:13.250Z,0
2016-09-13T02:52:12.470Z,0
2016-09-13T02:53:12.570Z,0
2016-09-13T02:54:12.084Z,0
2016-09-13T02:55:11.844Z,0
2016-09-13T02:56:10.568Z,0
2016-09-13T02:57:14.134Z,0
2016-09-13T02:58:11.812Z,0
2016-09-13T02:59:11.209Z,0
2016-09-13T03:00:12.026Z,0
2016-09-13T03:01:11.982Z,0
2016-09-13T03:02:13.833Z,0
2016-09-13T03:03:11.654Z,0
2016-09-13T03:04:12.519Z,0
2016-09-13T03:05:12.584Z,0
2016-09-13T03:06:11.327Z,0
2016-09-13T03:07:11.130Z,0
2016-09-13T03:08:12.355Z,0
2016-09-13T03:09:13.317Z,0
2016-09-13T03:10:12.774Z,0
2016-09-13T03:11:11.205Z,0
2016-09-13T03:12:12.412Z,0
2016-09-13T03:13:14.971Z,0
2016-09-13T03:14:12.120Z,0
2016-09-13T03:15:11.169Z,0
2016-09-13T03:16:11.854Z,0
2016-09-13T03:17:11.582Z,0
2016-09-13T03:18:12.666Z,0
2016-09-13T03:19:11.394Z,0
2016-09-13T03:20:12.647Z,0
2016-09-13T03:21:12.996Z,0
2016-09-13T03:22:12.231Z,0
2016-09-13T03:23:11.371Z,0
2016-09-13T03:24:10.960Z,0
2016-09-13T03:25:13.197Z,0
2016-09-13T03:26:11.647Z,0
2016-09-13T03:27:10.668Z,0
2016-09-13T03:28:13.586Z,0
2016-09-13T03:29:12.617Z,0
2016-09-13T03:30:13.179Z,0
2016-09-13T03:31:11.763Z,0
2016-09-13T03:32:13.610Z,0
2016-09-13T03:33:12.987Z,0
2016-09-13T03:34:12.118Z,0
2016-09-13T03:35:12.149Z,0
2016-09-13T03:36:13.720Z,0
2016-09-13T03:37:12.423Z,0
2016-09-13T03:38:11.146Z,0
2016-09-13T03:39:13.164Z,0
2016-09-13T03:40:13.183Z,0
2016-09-13T03:41:13.128Z,0
2016-09-13T03:42:13.028Z,0
2016-09-13T03:43:12.407Z,0
2016-09-13T03:44:11.593Z,0
2016-09-13T03:45:15.551Z,0
2016-09-13T03:46:13.341Z,0
2016-09-13T03:47:12.549Z,0
2016-09-13T03:48:13.052Z,0
2016-09-13T03:49:14.101Z,0
2016-09-13T03:50:12.045Z,0
2016-09-13T03:51:16.581Z,0
2016-09-13T03:52:14.295Z,0
2016-09-13T03:53:13.386Z,0
2016-09-13T03:54:14.306Z,0
2016-09-13T03:55:14.057Z,0
2016-09-13T03:56:12.627Z,0
2016-09-13T03:57:11.949Z,0
2016-09-13T03:58:13.710Z,0
2016-09-13T03:59:12.438Z,0
2016-09-13T04:00:14.477Z,0
2016-09-13T04:01:13.868Z,0
2016-09-13T04:02:14.247Z,0
2016-09-13T04:03:12.290Z,0
2016-09-13T04:04:13.871Z,0
2016-09-13T04:05:13.041Z,0
2016-09-13T04:06:12.461Z,0
2016-09-13T04:07:12.255Z,0
2016-09-13T04:08:12.737Z,0
2016-09-13T04:09:13.981Z,0
2016-09-13T04:10:13.644Z,0
2016-09-13T04:12:15.222Z,0
2016-09-13T04:13:14.844Z,0
2016-09-13T04:14:13.539Z,0
2016-09-13T04:15:13.982Z,0
2016-09-13T04:16:13.943Z,0
2016-09-13T04:17:14.865Z,0
2016-09-13T04:18:13.919Z,0
2016-09-13T04:19:14.148Z,0
2016-09-13T04:20:14.368Z,0
2016-09-13T04:21:14.894Z,0
2016-09-13T04:22:13.883Z,0
2016-09-13T04:23:13.026Z,0
2016-09-13T04:24:13.831Z,0
2016-09-13T04:25:13.918Z,0
2016-09-13T04:26:14.774Z,0
2016-09-13T04:27:12.852Z,0
2016-09-13T04:28:15.082Z,0
2016-09-13T04:29:15.975Z,0
2016-09-13T04:30:14.814Z,0
2016-09-13T04:31:15.854Z,0
2016-09-13T04:32:17.147Z,0
2016-09-13T04:33:15.541Z,0
2016-09-13T04:34:15.521Z,0
2016-09-13T04:35:14.740Z,0
2016-09-13T04:36:15.205Z,0
2016-09-13T04:37:12.360Z,0
2016-09-13T04:38:11.948Z,0
2016-09-13T04:39:12.359Z,0
2016-09-13T04:40:17.515Z,0
2016-09-13T04:41:14.939Z,0
2016-09-13T04:42:14.936Z,0
2016-09-13T04:43:14.928Z,5
2016-09-13T04:44:15.298Z,5
2016-09-13T04:45:13.702Z,5
2016-09-13T04:46:13.639Z,5
2016-09-13T04:47:13.931Z,5
2016-09-13T04:48:12.975Z,5
2016-09-13T04:49:14.057Z,10
2016-09-13T04:50:13.601Z,10
2016-09-13T04:51:16.076Z,10
2016-09-13T04:52:14.357Z,10
2016-09-13T04:53:14.020Z,15
2016-09-13T04:54:14.035Z,15
2016-09-13T04:55:14.212Z,15
2016-09-13T04:56:15.652Z,20
2016-09-13T04:57:14.718Z,20
2016-09-13T04:58:13.679Z,20
2016-09-13T04:59:13.757Z,25
2016-09-13T05:00:14.259Z,25
2016-09-13T05:01:14.109Z,25
2016-09-13T05:02:14.830Z,30
2016-09-13T05:03:13.216Z,30
2016-09-13T05:04:15.453Z,35
2016-09-13T05:05:14.316Z,35
2016-09-13T05:06:13.981Z,40
2016-09-13T05:07:16.214Z,40
2016-09-13T05:08:14.892Z,45
2016-09-13T05:09:15.260Z,45
2016-09-13T05:10:13.692Z,50
2016-09-13T05:11:15.559Z,50
2016-09-13T05:12:15.446Z,55
2016-09-13T05:13:16.171Z,55
2016-09-13T05:14:15.609Z,60
2016-09-13T05:15:13.982Z,60
2016-09-13T05:16:13.556Z,65
2016-09-13T05:17:15.559Z,65
2016-09-13T05:18:13.283Z,70
2016-09-13T05:19:14.115Z,70
2016-09-13T05:20:13.870Z,75
2016-09-13T05:21:14.688Z,80
2016-09-13T05:22:13.783Z,80
2016-09-13T05:23:13.590Z,85
2016-09-13T05:24:16.242Z,85
2016-09-13T05:25:15.589Z,90
2016-09-13T05:26:15.969Z,95
2016-09-13T05:27:13.852Z,95
2016-09-13T05:28:14.592Z,100
2016-09-13T05:29:14.787Z,100
2016-09-13T05:30:13.437Z,105
2016-09-13T05:31:15.404Z,110
2016-09-13T05:32:14.876Z,110
2016-09-13T05:33:14.840Z,115
2016-09-13T05:34:14.663Z,115
2016-09-13T05:35:17.317Z,120
2016-09-13T05:36:16.259Z,120
2016-09-13T05:37:15.106Z,125
2016-09-13T05:38:16.111Z,130
2016-09-13T05:39:15.325Z,130
2016-09-13T05:40:14.664Z,135
2016-09-13T05:41:14.642Z,135
2016-09-13T05:42:13.658Z,140
2016-09-13T05:43:14.383Z,145
2016-09-13T05:44:15.014Z,145
2016-09-13T05:45:14.298Z,150
2016-09-13T05:46:15.450Z,150
2016-09-13T05:47:15.001Z,155
2016-09-13T05:48:14.808Z,155
2016-09-13T05:49:14.856Z,160
2016-09-13T05:50:14.428Z,165
2016-09-13T05:51:15.718Z,165
2016-09-13T05:52:15.827Z,170
2016-09-13T05:53:16.217Z,170
2016-09-13T05:54:15.296Z,175
2016-09-13T05:55:14.660Z,175
2016-09-13T05:56:14.934Z,180
2016-09-13T05:57:13.751Z,0
2016-09-13T05:58:14.940Z,0
2016-09-13T06:00:57.157Z,190
2016-09-13T06:01:57.110Z,195
2016-09-13T06:02:56.887Z,195
2016-09-13T06:03:54.391Z,200
2016-09-13T06:04:58.700Z,200
2016-09-13T06:05:56.759Z,205
2016-09-13T06:06:56.486Z,205
2016-09-13T06:07:56.922Z,210
2016-09-13T06:08:57.318Z,210
2016-09-13T06:09:58.011Z,215
2016-09-13T06:10:56.416Z,215
2016-09-13T06:11:57.739Z,215
2016-09-13T06:12:56.724Z,215
2016-09-13T06:13:57.569Z,220
2016-09-13T06:14:56.446Z,225
2016-09-13T06:15:58.544Z,225
2016-09-13T06:16:57.270Z,230
2016-09-13T06:17:56.488Z,230
2016-09-13T06:18:58.839Z,235
2016-09-13T06:19:57.135Z,235
2016-09-13T06:20:56.887Z,240
2016-09-13T06:21:58.470Z,240
2016-09-13T06:22:58.400Z,245
2016-09-13T06:23:57.649Z,245
2016-09-13T06:24:58.091Z,245
2016-09-13T06:25:57.476Z,250
2016-09-13T06:26:59.370Z,255
2016-09-13T06:27:57.371Z,260
2016-09-13T06:28:57.542Z,260
2016-09-13T06:29:59.003Z,265
2016-09-13T06:30:56.971Z,270
2016-09-13T06:31:57.932Z,270
2016-09-13T06:32:57.404Z,270
2016-09-13T06:33:57.431Z,275
2016-09-13T06:34:56.936Z,275
2016-09-13T06:36:01.257Z,280
2016-09-13T06:36:57.527Z,280
2016-09-13T06:37:59.926Z,285
2016-09-13T06:38:57.532Z,285
2016-09-13T06:39:59.519Z,290
2016-09-13T06:40:58.809Z,295
2016-09-13T06:41:58.643Z,295
2016-09-13T06:42:57.162Z,300
2016-09-13T06:43:56.845Z,305
2016-09-13T06:44:59.172Z,305
2016-09-13T06:45:59.591Z,310
2016-09-13T06:46:58.109Z,310
2016-09-13T06:47:57.295Z,310
2016-09-13T06:48:57.182Z,315
2016-09-13T06:49:57.293Z,320
2016-09-13T06:50:56.911Z,325
2016-09-13T06:51:59.099Z,330
2016-09-13T06:52:58.289Z,335
2016-09-13T06:53:57.556Z,335
2016-09-13T06:54:57.893Z,345
2016-09-13T06:55:58.104Z,350
2016-09-13T06:56:58.347Z,355
2016-09-13T06:57:57.178Z,365
2016-09-13T06:59:00.492Z,400
2016-09-13T06:59:59.186Z,485
2016-09-13T07:00:59.262Z,570
2016-09-13T07:01:59.016Z,635
2016-09-13T07:02:57.658Z,705
2016-09-13T07:03:59.033Z,735
2016-09-13T07:04:57.438Z,695
2016-09-13T07:05:57.539Z,675
2016-09-13T07:06:57.845Z,675
2016-09-13T07:07:58.263Z,690
2016-09-13T07:08:57.955Z,675
2016-09-13T07:09:57.494Z,690
2016-09-13T07:10:57.691Z,695
2016-09-13T07:12:00.173Z,760
2016-09-13T07:12:56.772Z,770
2016-09-13T07:13:58.745Z,640
2016-09-13T07:14:58.459Z,550
2016-09-13T07:15:59.110Z,490
2016-09-13T07:16:58.361Z,470
2016-09-13T07:17:58.033Z,460
2016-09-13T07:18:59.178Z,450
2016-09-13T07:19:57.340Z,450
2016-09-13T07:21:00.205Z,450
2016-09-13T07:22:00.052Z,445
2016-09-13T07:22:58.627Z,445
2016-09-13T07:23:59.239Z,445
2016-09-13T07:24:57.751Z,445
2016-09-13T07:25:58.393Z,450
2016-09-13T07:26:57.322Z,450
2016-09-13T07:27:58.601Z,450
2016-09-13T07:28:59.294Z,455
2016-09-13T07:29:58.416Z,455
2016-09-13T07:30:58.481Z,465
2016-09-13T07:31:59.519Z,460
2016-09-13T07:32:58.773Z,460
2016-09-13T07:34:01.584Z,455
2016-09-13T07:35:00.005Z,455
2016-09-13T07:36:00.276Z,455
2016-09-13T07:36:59.057Z,455
2016-09-13T07:38:01.466Z,455
2016-09-13T07:38:59.954Z,455
2016-09-13T07:39:59.006Z,460
2016-09-13T07:40:58.338Z,460
2016-09-13T07:41:59.634Z,465
2016-09-13T07:42:59.061Z,470
2016-09-13T07:43:59.208Z,470
2016-09-13T07:44:59.875Z,475
2016-09-13T07:46:02.283Z,480
2016-09-13T07:46:59.145Z,485
2016-09-13T07:48:01.261Z,490
2016-09-13T07:48:57.760Z,500
2016-09-13T07:49:58.126Z,560
2016-09-13T07:50:59.251Z,760
2016-09-13T07:51:58.772Z,910
2016-09-13T07:52:59.716Z,980
2016-09-13T07:54:00.256Z,1040
2016-09-13T07:54:59.807Z,1080
2016-09-13T07:55:58.286Z,1165
2016-09-13T07:56:59.295Z,1225
2016-09-13T07:57:59.664Z,1090
2016-09-13T07:58:59.868Z,855
2016-09-13T08:00:00.560Z,900
2016-09-13T08:00:59.502Z,645
2016-09-13T08:01:59.479Z,570
2016-09-13T08:02:59.627Z,565
2016-09-13T08:04:00.998Z,565
2016-09-13T08:04:58.030Z,565
2016-09-13T08:06:00.348Z,570
2016-09-13T08:06:59.488Z,580
2016-09-13T08:07:59.712Z,585
2016-09-13T08:09:00.082Z,600
2016-09-13T08:09:59.989Z,645
2016-09-13T08:11:00.491Z,760
2016-09-13T08:12:02.817Z,1025
2016-09-13T08:13:00.424Z,1295
2016-09-13T08:14:00.116Z,1565
2016-09-13T08:15:00.515Z,1415
2016-09-13T08:16:00.091Z,1250
2016-09-13T08:16:59.891Z,1345
2016-09-13T08:17:59.802Z,1405
2016-09-13T08:18:59.687Z,1370
2016-09-13T08:19:59.571Z,1180
2016-09-13T08:21:00.002Z,1430
2016-09-13T08:22:01.577Z,1705
2016-09-13T08:22:59.355Z,1700
2016-09-13T08:23:59.896Z,1460
2016-09-13T08:24:59.055Z,1545
2016-09-13T08:26:00.882Z,1560
2016-09-13T08:27:01.363Z,1445
2016-09-13T08:28:00.554Z,1430
2016-09-13T08:28:59.932Z,1380
2016-09-13T08:30:01.567Z,1435
2016-09-13T08:31:00.072Z,1595
2016-09-13T08:32:02.103Z,1560
2016-09-13T08:33:00.299Z,1475
2016-09-13T08:34:01.828Z,1435
2016-09-13T08:35:02.292Z,1425
2016-09-13T08:36:00.302Z,1465
2016-09-13T08:37:00.474Z,1570
2016-09-13T08:38:00.218Z,1555
2016-09-13T08:39:00.668Z,1700
2016-09-13T08:40:00.667Z,1615
2016-09-13T08:40:59.742Z,1525
2016-09-13T08:42:00.674Z,1600
2016-09-13T08:43:02.174Z,1635
2016-09-13T08:44:02.324Z,1620
2016-09-13T08:45:01.419Z,1535
2016-09-13T08:45:59.605Z,1520
2016-09-13T08:47:00.573Z,1525
2016-09-13T08:48:03.267Z,1560
2016-09-13T08:49:00.432Z,1620
2016-09-13T08:50:01.897Z,1670
2016-09-13T08:51:01.750Z,1635
2016-09-13T08:52:01.118Z,1650
2016-09-13T08:53:00.304Z,1705
2016-09-13T08:54:01.192Z,1680
2016-09-13T08:55:01.077Z,1740
2016-09-13T08:56:01.452Z,1690
2016-09-13T08:57:00.200Z,1760
2016-09-13T08:57:59.917Z,1820
2016-09-13T08:59:01.981Z,1805
2016-09-13T09:00:02.175Z,1710
2016-09-13T09:01:00.431Z,1665
2016-09-13T09:02:01.806Z,1685
2016-09-13T09:02:59.709Z,1725
2016-09-13T09:04:02.229Z,1820
2016-09-13T09:05:01.691Z,1790
2016-09-13T09:06:00.562Z,1715
2016-09-13T09:07:00.438Z,1760
2016-09-13T09:08:01.749Z,1730
2016-09-13T09:08:59.901Z,1730
2016-09-13T09:10:02.196Z,1765
2016-09-13T09:11:01.234Z,1730
2016-09-13T09:12:01.046Z,1705
2016-09-13T09:13:02.474Z,1670
2016-09-13T09:14:00.232Z,1665
2016-09-13T09:15:02.427Z,1775
2016-09-13T09:16:00.614Z,1775
2016-09-13T09:17:01.638Z,1705
2016-09-13T09:18:00.332Z,1755
2016-09-13T09:19:03.451Z,1725
2016-09-13T09:20:03.423Z,1785
2016-09-13T09:21:02.189Z,1900
2016-09-13T09:22:01.524Z,1890
2016-09-13T09:23:00.387Z,1830
2016-09-13T09:24:01.969Z,1810
2016-09-13T09:25:01.768Z,1805
2016-09-13T09:26:01.365Z,1820
2016-09-13T09:27:00.502Z,1800
2016-09-13T09:28:02.174Z,1785
2016-09-13T09:29:03.489Z,1745
2016-09-13T09:30:03.795Z,1730
2016-09-13T09:31:02.439Z,1670
2016-09-13T09:32:02.640Z,1565
2016-09-13T09:33:00.768Z,1540
2016-09-13T09:34:03.022Z,1645
2016-09-13T09:35:02.597Z,1820
2016-09-13T09:36:03.443Z,1835
2016-09-13T09:37:04.032Z,1760
2016-09-13T09:38:02.342Z,1740
2016-09-13T09:39:02.417Z,1745
2016-09-13T09:40:01.033Z,1655
2016-09-13T09:41:01.548Z,1670
2016-09-13T09:42:03.060Z,1750
2016-09-13T09:43:02.908Z,1730
2016-09-13T09:44:03.081Z,1735
2016-09-13T09:45:01.886Z,1720
2016-09-13T09:46:03.296Z,1680
2016-09-13T09:47:02.103Z,1725
2016-09-13T09:48:03.054Z,1770
2016-09-13T09:49:01.731Z,1780
2016-09-13T09:50:02.258Z,1715
2016-09-13T09:51:03.166Z,1680
2016-09-13T09:52:04.226Z,1695
2016-09-13T09:53:05.113Z,1715
2016-09-13T09:54:02.385Z,1705
2016-09-13T09:55:03.062Z,1760
2016-09-13T09:56:01.894Z,1780
2016-09-13T09:57:02.742Z,1780
2016-09-13T09:58:03.786Z,1835
2016-09-13T09:59:02.336Z,1835
2016-09-13T10:00:02.307Z,1705
2016-09-13T10:01:04.031Z,1775
2016-09-13T10:02:02.563Z,1915
2016-09-13T10:03:03.127Z,1870
2016-09-13T10:04:03.542Z,1905
2016-09-13T10:05:03.131Z,1705
2016-09-13T10:06:03.837Z,1735
2016-09-13T10:07:02.910Z,1775
2016-09-13T10:08:03.049Z,1805
2016-09-13T10:09:03.689Z,1820
2016-09-13T10:10:03.748Z,1820
2016-09-13T10:11:03.350Z,1840
2016-09-13T10:12:03.249Z,1765
2016-09-13T10:13:02.834Z,1850
2016-09-13T10:14:04.793Z,1840
2016-09-13T10:15:02.415Z,1755
2016-09-13T10:16:04.988Z,1695
2016-09-13T10:17:03.412Z,1800
2016-09-13T10:18:03.907Z,1830
2016-09-13T10:19:03.690Z,1770
2016-09-13T10:20:03.088Z,1770
2016-09-13T10:21:03.786Z,1855
2016-09-13T10:22:05.836Z,1975
2016-09-13T10:23:04.504Z,1900
2016-09-13T10:24:03.669Z,1975
2016-09-13T10:25:03.396Z,2055
2016-09-13T10:26:03.377Z,1970
2016-09-13T10:27:03.888Z,1895
2016-09-13T10:28:03.345Z,1760
2016-09-13T10:29:03.435Z,1645
2016-09-13T10:30:03.671Z,1590
2016-09-13T10:31:03.687Z,1515
2016-09-13T10:32:04.490Z,1450
2016-09-13T10:33:04.791Z,1410
2016-09-13T10:34:02.853Z,1535
2016-09-13T10:35:06.027Z,1795
2016-09-13T10:36:05.217Z,1810
2016-09-13T10:37:05.058Z,1710
2016-09-13T10:38:02.727Z,1785
2016-09-13T10:39:03.904Z,1845
2016-09-13T10:40:03.941Z,1770
2016-09-13T10:41:04.519Z,1495
2016-09-13T10:42:03.540Z,1675
2016-09-13T10:43:04.523Z,1560
2016-09-13T10:44:03.626Z,1425
2016-09-13T10:45:04.270Z,1625
2016-09-13T10:46:06.979Z,1615
2016-09-13T10:47:05.003Z,1380
2016-09-13T10:48:04.157Z,1475
2016-09-13T10:49:03.220Z,1455
2016-09-13T10:50:03.348Z,1385
2016-09-13T10:51:04.044Z,1305
2016-09-13T10:52:04.390Z,1325
2016-09-13T10:53:04.953Z,1535
2016-09-13T10:54:05.221Z,1525
2016-09-13T10:55:04.572Z,1370
2016-09-13T10:56:04.135Z,1305
2016-09-13T10:57:04.136Z,1200
2016-09-13T10:58:03.681Z,1000
2016-09-13T10:59:04.520Z,915
2016-09-13T11:00:05.173Z,900
2016-09-13T11:01:04.995Z,935
2016-09-13T11:02:04.139Z,985
2016-09-13T11:03:03.477Z,995
2016-09-13T11:04:03.833Z,960
2016-09-13T11:05:04.069Z,1040
2016-09-13T11:06:05.268Z,960
2016-09-13T11:07:03.407Z,905
2016-09-13T11:08:06.608Z,840
2016-09-13T11:09:06.130Z,810
2016-09-13T11:10:06.213Z,795
2016-09-13T11:11:05.709Z,785
2016-09-13T11:12:04.792Z,765
2016-09-13T11:13:05.331Z,750
2016-09-13T11:14:05.157Z,745
2016-09-13T11:15:06.328Z,745
2016-09-13T11:16:05.361Z,735
2016-09-13T11:17:06.278Z,730
2016-09-13T11:18:07.429Z,725
2016-09-13T11:19:05.240Z,730
2016-09-13T11:20:04.121Z,725
2016-09-13T11:21:06.049Z,720
2016-09-13T11:22:07.099Z,715
2016-09-13T11:23:04.321Z,715
2016-09-13T11:24:04.895Z,710
2016-09-13T11:25:06.297Z,710
2016-09-13T11:26:04.844Z,710
2016-09-13T11:27:06.589Z,705
2016-09-13T11:28:06.021Z,705
2016-09-13T11:29:05.958Z,700
2016-09-13T11:30:05.876Z,700
2016-09-13T11:31:06.152Z,700
2016-09-13T11:32:04.202Z,695
2016-09-13T11:33:05.218Z,700
2016-09-13T11:34:06.440Z,695
2016-09-13T11:35:05.762Z,690
2016-09-13T11:36:05.854Z,690
2016-09-13T11:37:07.766Z,695
2016-09-13T11:38:06.491Z,690
2016-09-13T11:39:05.662Z,690
2016-09-13T11:40:06.082Z,695
2016-09-13T11:41:05.830Z,690
2016-09-13T11:42:06.107Z,690
2016-09-13T11:43:06.002Z,685
2016-09-13T11:44:08.035Z,690
2016-09-13T11:45:06.022Z,685
2016-09-13T11:46:07.000Z,685
2016-09-13T11:47:06.437Z,685
2016-09-13T11:48:07.073Z,685
2016-09-13T11:49:06.164Z,685
2016-09-13T11:50:06.197Z,685
2016-09-13T11:51:05.859Z,690
2016-09-13T11:52:08.376Z,690
2016-09-13T11:53:06.483Z,690
2016-09-13T11:54:05.785Z,690
2016-09-13T11:55:05.263Z,690
2016-09-13T11:56:06.170Z,690
2016-09-13T11:57:06.475Z,685
2016-09-13T11:58:05.986Z,685
2016-09-13T11:59:07.702Z,685
2016-09-13T12:00:07.486Z,685
2016-09-13T12:01:06.522Z,680
2016-09-13T12:02:07.239Z,680
2016-09-13T12:03:07.529Z,685
2016-09-13T12:04:07.061Z,685
2016-09-13T12:05:07.071Z,685
2016-09-13T12:06:07.484Z,680
2016-09-13T12:07:07.592Z,680
2016-09-13T12:08:07.801Z,680
2016-09-13T12:09:08.608Z,680
2016-09-13T12:10:07.478Z,690
2016-09-13T12:11:07.936Z,690
2016-09-13T12:12:07.378Z,685
2016-09-13T12:13:09.489Z,680
2016-09-13T12:14:07.965Z,680
2016-09-13T12:15:07.299Z,685
2016-09-13T12:16:07.528Z,685
2016-09-13T12:17:07.867Z,680
2016-09-13T12:18:06.385Z,690
2016-09-13T12:19:08.779Z,685
2016-09-13T12:20:09.905Z,685
2016-09-13T12:21:08.499Z,690
2016-09-13T12:22:07.903Z,685
2016-09-13T12:23:07.820Z,685
2016-09-13T12:24:07.626Z,685
2016-09-13T12:25:07.767Z,690
2016-09-13T12:26:08.527Z,685
2016-09-13T12:27:08.129Z,685
2016-09-13T12:28:07.521Z,685
2016-09-13T12:29:07.122Z,685
2016-09-13T12:30:08.153Z,690
2016-09-13T12:31:08.752Z,685
2016-09-13T12:32:09.047Z,690
2016-09-13T12:33:08.997Z,690
2016-09-13T12:34:07.835Z,690
2016-09-13T12:35:09.064Z,690
2016-09-13T12:36:08.078Z,685
2016-09-13T12:37:08.186Z,685
2016-09-13T12:38:07.820Z,685
2016-09-13T12:39:07.978Z,690
2016-09-13T12:40:10.667Z,685
2016-09-13T12:41:08.411Z,685
2016-09-13T12:42:08.851Z,685
2016-09-13T12:43:08.239Z,685
2016-09-13T12:44:10.220Z,685
2016-09-13T12:45:09.797Z,685
2016-09-13T12:46:09.371Z,680
2016-09-13T12:47:08.839Z,685
2016-09-13T12:48:09.599Z,680
2016-09-13T12:49:09.507Z,680
2016-09-13T12:50:08.510Z,680
2016-09-13T12:51:09.105Z,675
2016-09-13T12:52:08.376Z,680
2016-09-13T12:53:11.283Z,680
2016-09-13T12:54:09.229Z,680
2016-09-13T12:55:08.898Z,680
2016-09-13T12:56:09.891Z,685
2016-09-13T12:57:09.155Z,680
2016-09-13T12:58:10.155Z,680
2016-09-13T12:59:09.486Z,675
2016-09-13T13:00:09.740Z,675
2016-09-13T13:01:10.071Z,680
2016-09-13T13:02:08.723Z,680
2016-09-13T13:03:13.663Z,675
2016-09-13T13:04:08.897Z,675
2016-09-13T13:05:10.278Z,675
2016-09-13T13:06:09.464Z,675
2016-09-13T13:07:10.439Z,670
2016-09-13T13:08:09.871Z,665
2016-09-13T13:09:09.123Z,665
2016-09-13T13:10:09.816Z,665
2016-09-13T13:11:07.940Z,665
2016-09-13T13:12:10.407Z,660
2016-09-13T13:13:10.260Z,660
2016-09-13T13:14:09.307Z,660
2016-09-13T13:15:10.334Z,655
2016-09-13T13:16:09.450Z,655
2016-09-13T13:17:10.438Z,650
2016-09-13T13:18:10.070Z,650
2016-09-13T13:19:09.379Z,650
2016-09-13T13:20:11.090Z,655
2016-09-13T13:21:09.134Z,650
2016-09-13T13:22:09.286Z,650
2016-09-13T13:23:09.513Z,645
2016-09-13T13:24:09.669Z,645
2016-09-13T13:25:11.278Z,640
2016-09-13T13:26:10.093Z,640
2016-09-13T13:27:09.355Z,640
2016-09-13T13:28:09.127Z,635
2016-09-13T13:29:09.869Z,635
2016-09-13T13:30:10.690Z,635
2016-09-13T13:31:10.662Z,635
2016-09-13T13:32:09.844Z,635
2016-09-13T13:33:10.005Z,630
2016-09-13T13:34:09.839Z,630
2016-09-13T13:35:10.406Z,625
2016-09-13T13:36:09.804Z,630
2016-09-13T13:37:10.442Z,620
2016-09-13T13:38:10.097Z,620
2016-09-13T13:39:11.536Z,615
2016-09-13T13:40:12.963Z,615
2016-09-13T13:41:10.502Z,615
2016-09-13T13:42:10.512Z,610
2016-09-13T13:43:10.391Z,610
2016-09-13T13:44:12.915Z,610
2016-09-13T13:45:11.620Z,610
2016-09-13T13:46:10.491Z,610
2016-09-13T13:47:11.442Z,610
2016-09-13T13:48:11.841Z,615
2016-09-13T13:49:10.625Z,610
2016-09-13T13:50:10.245Z,610
2016-09-13T13:51:09.626Z,605
2016-09-13T13:52:10.391Z,605
2016-09-13T13:53:11.479Z,605
2016-09-13T13:54:11.987Z,600
2016-09-13T13:55:12.057Z,600
2016-09-13T13:56:11.508Z,600
2016-09-13T13:57:11.344Z,600
2016-09-13T13:58:12.869Z,600
2016-09-13T13:59:09.902Z,600
2016-09-13T14:00:11.898Z,595
2016-09-13T14:01:11.331Z,595
2016-09-13T14:02:10.158Z,595
2016-09-13T14:03:11.713Z,590
2016-09-13T14:04:10.274Z,590